Weather at George Bush Intercontinental Houston Airport

Public forecast

Using degrees Fahrenheit for public forecast. Weather courtesy of forecast.io.

Current aviation weather report (METAR) for George Bush Intercontinental Houston Airport

Retrieved 2021/05/17 23:12 UTC (0 seconds ago):

KIAH 172312Z 09011KT 3SM -TSRA BR SCT007 BKN040CB BKN070 OVC130 21/19 A2995 RMK AO2 LTG DSNT SW AND NW TSB11 OCNL LTGICCG OHD TS OHD MOV SE CB DSNT S-W P0018 T02110194

Aviation forecast (TAF) for George Bush Intercontinental Houston Airport

Retrieved 2021/05/17 18:36 UTC (5 hours ago):

TAF KIAH 171735Z 1718/1824 17009KT P6SM -SHRA VCTS SCT025CB BKN050 BKN120 TEMPO 1719/1722 VRB15G25KT 2SM TSRA BR SCT015CB BKN025 FM180100 14008KT P6SM SCT025 BKN045 BKN250 FM180400 VRB05KT P6SM FEW009 BKN015 BKN025 FM181500 13011KT P6SM VCSH SCT015 BKN025 BKN050 FM181800 15014KT P6SM VCTS SCT025CB BKN050 BKN250